sensor_id;sensor_type;location;lat;lon;timestamp;temperature;humidity
75372;HTU21D;63956;52.006;5.878;2023-02-01T00:00:10;7.08;66.19
75372;HTU21D;63956;52.006;5.878;2023-02-01T00:02:42;7.12;65.96
75372;HTU21D;63956;52.006;5.878;2023-02-01T00:05:11;7.15;65.81
75372;HTU21D;63956;52.006;5.878;2023-02-01T00:07:40;7.16;65.62
75372;HTU21D;63956;52.006;5.878;2023-02-01T00:10:10;7.16;65.70
75372;HTU21D;63956;52.006;5.878;2023-02-01T00:12:39;7.18;65.61
75372;HTU21D;63956;52.006;5.878;2023-02-01T00:15:09;7.18;65.43
75372;HTU21D;63956;52.006;5.878;2023-02-01T00:17:38;7.20;65.43
75372;HTU21D;63956;52.006;5.878;2023-02-01T00:20:11;7.20;65.21
75372;HTU21D;63956;52.006;5.878;2023-02-01T00:22:40;7.20;65.24
75372;HTU21D;63956;52.006;5.878;2023-02-01T00:25:09;7.23;65.17
75372;HTU21D;63956;52.006;5.878;2023-02-01T00:27:38;7.23;65.17
75372;HTU21D;63956;52.006;5.878;2023-02-01T00:30:09;7.23;65.21
75372;HTU21D;63956;52.006;5.878;2023-02-01T00:32:38;7.24;64.95
75372;HTU21D;63956;52.006;5.878;2023-02-01T00:35:10;7.23;65.02
75372;HTU21D;63956;52.006;5.878;2023-02-01T00:37:39;7.23;64.94
75372;HTU21D;63956;52.006;5.878;2023-02-01T00:40:10;7.22;65.00
75372;HTU21D;63956;52.006;5.878;2023-02-01T00:42:39;7.22;65.05
75372;HTU21D;63956;52.006;5.878;2023-02-01T00:45:09;7.22;64.92
75372;HTU21D;63956;52.006;5.878;2023-02-01T00:47:39;7.24;64.96
75372;HTU21D;63956;52.006;5.878;2023-02-01T00:50:11;7.25;65.00
75372;HTU21D;63956;52.006;5.878;2023-02-01T00:52:40;7.26;64.90
75372;HTU21D;63956;52.006;5.878;2023-02-01T00:55:09;7.27;64.81
75372;HTU21D;63956;52.006;5.878;2023-02-01T00:57:38;7.28;64.79
75372;HTU21D;63956;52.006;5.878;2023-02-01T01:00:09;7.28;64.79
75372;HTU21D;63956;52.006;5.878;2023-02-01T01:02:38;7.30;64.63
75372;HTU21D;63956;52.006;5.878;2023-02-01T01:05:10;7.30;64.71
75372;HTU21D;63956;52.006;5.878;2023-02-01T01:07:39;7.31;64.59
75372;HTU21D;63956;52.006;5.878;2023-02-01T01:10:09;7.30;64.64
75372;HTU21D;63956;52.006;5.878;2023-02-01T01:12:38;7.29;64.63
75372;HTU21D;63956;52.006;5.878;2023-02-01T01:15:08;7.25;64.79
75372;HTU21D;63956;52.006;5.878;2023-02-01T01:17:38;7.24;64.75
75372;HTU21D;63956;52.006;5.878;2023-02-01T01:20:12;7.19;64.95
75372;HTU21D;63956;52.006;5.878;2023-02-01T01:22:42;7.15;65.02
75372;HTU21D;63956;52.006;5.878;2023-02-01T01:25:11;7.11;65.17
75372;HTU21D;63956;52.006;5.878;2023-02-01T01:27:40;7.08;65.29
75372;HTU21D;63956;52.006;5.878;2023-02-01T01:30:10;7.07;65.34
75372;HTU21D;63956;52.006;5.878;2023-02-01T01:32:40;7.02;65.35
75372;HTU21D;63956;52.006;5.878;2023-02-01T01:35:11;7.03;65.45
75372;HTU21D;63956;52.006;5.878;2023-02-01T01:37:41;7.02;65.44
75372;HTU21D;63956;52.006;5.878;2023-02-01T01:40:11;7.08;65.27
75372;HTU21D;63956;52.006;5.878;2023-02-01T01:42:42;7.13;65.32
75372;HTU21D;63956;52.006;5.878;2023-02-01T01:45:22;7.15;65.23
75372;HTU21D;63956;52.006;5.878;2023-02-01T01:47:53;7.15;65.30
75372;HTU21D;63956;52.006;5.878;2023-02-01T01:50:28;7.15;65.24
75372;HTU21D;63956;52.006;5.878;2023-02-01T01:53:01;7.09;65.44
75372;HTU21D;63956;52.006;5.878;2023-02-01T01:55:34;7.07;65.56
75372;HTU21D;63956;52.006;5.878;2023-02-01T01:58:06;7.03;65.62
75372;HTU21D;63956;52.006;5.878;2023-02-01T02:00:37;7.08;65.62
75372;HTU21D;63956;52.006;5.878;2023-02-01T02:03:11;7.10;65.53
75372;HTU21D;63956;52.006;5.878;2023-02-01T02:05:46;7.13;65.56
75372;HTU21D;63956;52.006;5.878;2023-02-01T02:08:17;7.14;65.48
75372;HTU21D;63956;52.006;5.878;2023-02-01T02:10:47;7.16;65.34
75372;HTU21D;63956;52.006;5.878;2023-02-01T02:13:32;7.18;65.35
75372;HTU21D;63956;52.006;5.878;2023-02-01T02:16:26;7.15;65.46
75372;HTU21D;63956;52.006;5.878;2023-02-01T02:22:35;7.16;65.38
75372;HTU21D;63956;52.006;5.878;2023-02-01T02:25:37;7.17;65.42
75372;HTU21D;63956;52.006;5.878;2023-02-01T02:28:18;7.14;65.52
75372;HTU21D;63956;52.006;5.878;2023-02-01T02:30:55;7.16;65.46
75372;HTU21D;63956;52.006;5.878;2023-02-01T02:34:00;7.14;65.46
75372;HTU21D;63956;52.006;5.878;2023-02-01T02:36:37;7.12;65.44
75372;HTU21D;63956;52.006;5.878;2023-02-01T02:39:16;7.15;65.47
75372;HTU21D;63956;52.006;5.878;2023-02-01T02:41:52;7.17;65.31
75372;HTU21D;63956;52.006;5.878;2023-02-01T02:44:41;7.19;65.30
75372;HTU21D;63956;52.006;5.878;2023-02-01T02:47:29;7.22;65.35
75372;HTU21D;63956;52.006;5.878;2023-02-01T02:50:23;7.24;65.28
75372;HTU21D;63956;52.006;5.878;2023-02-01T02:53:12;7.18;65.23
75372;HTU21D;63956;52.006;5.878;2023-02-01T02:55:56;7.17;65.37
75372;HTU21D;63956;52.006;5.878;2023-02-01T02:58:38;7.17;65.35
75372;HTU21D;63956;52.006;5.878;2023-02-01T03:01:20;7.18;65.37
75372;HTU21D;63956;52.006;5.878;2023-02-01T03:04:02;7.19;65.33
75372;HTU21D;63956;52.006;5.878;2023-02-01T03:06:40;7.22;65.35
75372;HTU21D;63956;52.006;5.878;2023-02-01T03:09:14;7.27;65.18
75372;HTU21D;63956;52.006;5.878;2023-02-01T03:11:47;7.30;65.08
75372;HTU21D;63956;52.006;5.878;2023-02-01T03:14:32;7.33;65.03
75372;HTU21D;63956;52.006;5.878;2023-02-01T03:17:07;7.34;65.11
75372;HTU21D;63956;52.006;5.878;2023-02-01T03:19:41;7.31;65.20
75372;HTU21D;63956;52.006;5.878;2023-02-01T03:22:21;7.29;65.22
75372;HTU21D;63956;52.006;5.878;2023-02-01T03:24:53;7.26;65.32
75372;HTU21D;63956;52.006;5.878;2023-02-01T03:27:27;7.28;65.37
75372;HTU21D;63956;52.006;5.878;2023-02-01T03:30:02;7.29;65.37
75372;HTU21D;63956;52.006;5.878;2023-02-01T03:32:34;7.29;65.37
75372;HTU21D;63956;52.006;5.878;2023-02-01T03:35:16;7.26;65.48
75372;HTU21D;63956;52.006;5.878;2023-02-01T03:37:49;7.25;65.53
75372;HTU21D;63956;52.006;5.878;2023-02-01T03:40:20;7.28;65.56
75372;HTU21D;63956;52.006;5.878;2023-02-01T03:42:54;7.38;65.38
75372;HTU21D;63956;52.006;5.878;2023-02-01T03:45:27;7.42;65.38
75372;HTU21D;63956;52.006;5.878;2023-02-01T03:48:00;7.46;65.33
75372;HTU21D;63956;52.006;5.878;2023-02-01T03:50:31;7.49;65.25
75372;HTU21D;63956;52.006;5.878;2023-02-01T03:53:07;7.56;65.26
75372;HTU21D;63956;52.006;5.878;2023-02-01T03:55:37;7.57;65.24
75372;HTU21D;63956;52.006;5.878;2023-02-01T03:58:10;7.57;65.25
75372;HTU21D;63956;52.006;5.878;2023-02-01T04:00:42;7.48;65.46
75372;HTU21D;63956;52.006;5.878;2023-02-01T04:03:13;7.40;65.69
75372;HTU21D;63956;52.006;5.878;2023-02-01T04:05:42;7.35;65.86
75372;HTU21D;63956;52.006;5.878;2023-02-01T04:08:14;7.32;66.05
75372;HTU21D;63956;52.006;5.878;2023-02-01T04:10:44;7.27;66.14
75372;HTU21D;63956;52.006;5.878;2023-02-01T04:13:13;7.26;66.10
75372;HTU21D;63956;52.006;5.878;2023-02-01T04:15:42;7.22;66.24
75372;HTU21D;63956;52.006;5.878;2023-02-01T04:18:11;7.19;66.33
75372;HTU21D;63956;52.006;5.878;2023-02-01T04:20:42;7.23;66.36
75372;HTU21D;63956;52.006;5.878;2023-02-01T04:23:14;7.29;66.30
75372;HTU21D;63956;52.006;5.878;2023-02-01T04:25:43;7.32;66.22
75372;HTU21D;63956;52.006;5.878;2023-02-01T04:28:13;7.33;66.14
75372;HTU21D;63956;52.006;5.878;2023-02-01T04:30:42;7.37;66.07
75372;HTU21D;63956;52.006;5.878;2023-02-01T04:33:10;7.32;66.20
75372;HTU21D;63956;52.006;5.878;2023-02-01T04:35:40;7.35;66.17
75372;HTU21D;63956;52.006;5.878;2023-02-01T04:38:09;7.44;66.01
75372;HTU21D;63956;52.006;5.878;2023-02-01T04:40:41;7.54;65.82
75372;HTU21D;63956;52.006;5.878;2023-02-01T04:43:10;7.62;65.51
75372;HTU21D;63956;52.006;5.878;2023-02-01T04:45:39;7.70;65.33
75372;HTU21D;63956;52.006;5.878;2023-02-01T04:48:08;7.78;65.23
75372;HTU21D;63956;52.006;5.878;2023-02-01T04:50:37;7.82;65.01
75372;HTU21D;63956;52.006;5.878;2023-02-01T04:53:06;7.88;65.11
75372;HTU21D;63956;52.006;5.878;2023-02-01T04:55:35;7.87;64.95
75372;HTU21D;63956;52.006;5.878;2023-02-01T04:58:07;7.88;64.86
75372;HTU21D;63956;52.006;5.878;2023-02-01T05:00:37;7.93;64.82
75372;HTU21D;63956;52.006;5.878;2023-02-01T05:03:06;8.00;64.55
75372;HTU21D;63956;52.006;5.878;2023-02-01T05:05:35;8.04;64.52
75372;HTU21D;63956;52.006;5.878;2023-02-01T05:08:04;8.08;64.49
75372;HTU21D;63956;52.006;5.878;2023-02-01T05:10:33;8.13;64.57
75372;HTU21D;63956;52.006;5.878;2023-02-01T05:13:02;8.11;64.22
75372;HTU21D;63956;52.006;5.878;2023-02-01T05:15:52;8.14;64.16
75372;HTU21D;63956;52.006;5.878;2023-02-01T05:18:22;8.16;64.16
75372;HTU21D;63956;52.006;5.878;2023-02-01T05:20:50;8.22;64.25
75372;HTU21D;63956;52.006;5.878;2023-02-01T05:23:19;8.20;64.11
75372;HTU21D;63956;52.006;5.878;2023-02-01T05:25:48;8.27;64.11
75372;HTU21D;63956;52.006;5.878;2023-02-01T05:28:17;8.23;63.76
75372;HTU21D;63956;52.006;5.878;2023-02-01T05:30:46;8.30;63.97
75372;HTU21D;63956;52.006;5.878;2023-02-01T05:33:18;8.27;63.79
75372;HTU21D;63956;52.006;5.878;2023-02-01T05:35:47;8.28;63.89
75372;HTU21D;63956;52.006;5.878;2023-02-01T05:38:16;8.34;63.89
75372;HTU21D;63956;52.006;5.878;2023-02-01T05:40:45;8.34;63.84
75372;HTU21D;63956;52.006;5.878;2023-02-01T05:43:15;8.37;63.76
75372;HTU21D;63956;52.006;5.878;2023-02-01T05:45:45;8.38;63.73
75372;HTU21D;63956;52.006;5.878;2023-02-01T05:48:14;8.42;63.80
75372;HTU21D;63956;52.006;5.878;2023-02-01T05:50:45;8.38;63.79
75372;HTU21D;63956;52.006;5.878;2023-02-01T05:53:14;8.37;63.76
75372;HTU21D;63956;52.006;5.878;2023-02-01T05:55:43;8.45;63.79
75372;HTU21D;63956;52.006;5.878;2023-02-01T05:58:12;8.44;63.72
75372;HTU21D;63956;52.006;5.878;2023-02-01T06:00:41;8.44;63.77
75372;HTU21D;63956;52.006;5.878;2023-02-01T06:03:10;8.48;63.74
75372;HTU21D;63956;52.006;5.878;2023-02-01T06:05:39;8.42;63.63
75372;HTU21D;63956;52.006;5.878;2023-02-01T06:08:11;8.45;63.80
75372;HTU21D;63956;52.006;5.878;2023-02-01T06:10:40;8.38;63.76
75372;HTU21D;63956;52.006;5.878;2023-02-01T06:13:09;8.45;63.79
75372;HTU21D;63956;52.006;5.878;2023-02-01T06:15:38;8.39;63.79
75372;HTU21D;63956;52.006;5.878;2023-02-01T06:18:08;8.38;63.84
75372;HTU21D;63956;52.006;5.878;2023-02-01T06:20:37;8.42;63.83
75372;HTU21D;63956;52.006;5.878;2023-02-01T06:23:06;8.39;63.77
75372;HTU21D;63956;52.006;5.878;2023-02-01T06:25:38;8.39;63.85
75372;HTU21D;63956;52.006;5.878;2023-02-01T06:28:07;8.39;63.81
75372;HTU21D;63956;52.006;5.878;2023-02-01T06:30:36;8.42;63.73
75372;HTU21D;63956;52.006;5.878;2023-02-01T06:33:07;8.45;63.62
75372;HTU21D;63956;52.006;5.878;2023-02-01T06:35:36;8.45;63.65
75372;HTU21D;63956;52.006;5.878;2023-02-01T06:38:05;8.50;63.42
75372;HTU21D;63956;52.006;5.878;2023-02-01T06:40:34;8.48;63.48
75372;HTU21D;63956;52.006;5.878;2023-02-01T06:43:05;8.52;63.59
75372;HTU21D;63956;52.006;5.878;2023-02-01T06:45:34;8.50;63.47
75372;HTU21D;63956;52.006;5.878;2023-02-01T06:48:05;8.51;63.47
75372;HTU21D;63956;52.006;5.878;2023-02-01T06:50:34;8.51;63.53
75372;HTU21D;63956;52.006;5.878;2023-02-01T06:53:03;8.53;63.42
75372;HTU21D;63956;52.006;5.878;2023-02-01T06:55:32;8.56;63.46
75372;HTU21D;63956;52.006;5.878;2023-02-01T06:58:01;8.48;63.44
75372;HTU21D;63956;52.006;5.878;2023-02-01T07:00:33;8.50;63.55
75372;HTU21D;63956;52.006;5.878;2023-02-01T07:03:02;8.48;63.51
75372;HTU21D;63956;52.006;5.878;2023-02-01T07:05:32;8.49;63.46
75372;HTU21D;63956;52.006;5.878;2023-02-01T07:08:00;8.49;63.58
75372;HTU21D;63956;52.006;5.878;2023-02-01T07:10:29;8.45;63.63
75372;HTU21D;63956;52.006;5.878;2023-02-01T07:12:59;8.44;63.66
75372;HTU21D;63956;52.006;5.878;2023-02-01T07:15:27;8.44;63.66
75372;HTU21D;63956;52.006;5.878;2023-02-01T07:17:59;8.38;63.74
75372;HTU21D;63956;52.006;5.878;2023-02-01T07:20:28;8.34;63.83
75372;HTU21D;63956;52.006;5.878;2023-02-01T07:22:57;8.29;63.96
75372;HTU21D;63956;52.006;5.878;2023-02-01T07:25:27;8.28;64.05
75372;HTU21D;63956;52.006;5.878;2023-02-01T07:27:55;8.32;63.97
75372;HTU21D;63956;52.006;5.878;2023-02-01T07:30:24;8.27;64.11
75372;HTU21D;63956;52.006;5.878;2023-02-01T07:32:54;8.27;64.12
75372;HTU21D;63956;52.006;5.878;2023-02-01T07:35:29;8.29;64.03
75372;HTU21D;63956;52.006;5.878;2023-02-01T07:38:01;8.27;63.97
75372;HTU21D;63956;52.006;5.878;2023-02-01T07:40:30;8.23;64.18
75372;HTU21D;63956;52.006;5.878;2023-02-01T07:42:59;8.22;64.21
75372;HTU21D;63956;52.006;5.878;2023-02-01T07:45:29;8.22;64.19
75372;HTU21D;63956;52.006;5.878;2023-02-01T07:47:58;8.21;64.22
75372;HTU21D;63956;52.006;5.878;2023-02-01T07:50:30;8.23;64.20
75372;HTU21D;63956;52.006;5.878;2023-02-01T07:53:00;8.29;64.17
75372;HTU21D;63956;52.006;5.878;2023-02-01T07:55:29;8.29;64.10
75372;HTU21D;63956;52.006;5.878;2023-02-01T07:57:58;8.29;64.09
75372;HTU21D;63956;52.006;5.878;2023-02-01T08:00:27;8.29;64.08
75372;HTU21D;63956;52.006;5.878;2023-02-01T08:03:08;8.24;64.19
75372;HTU21D;63956;52.006;5.878;2023-02-01T08:05:40;8.27;64.11
75372;HTU21D;63956;52.006;5.878;2023-02-01T08:08:09;8.26;64.20
75372;HTU21D;63956;52.006;5.878;2023-02-01T08:10:39;8.33;64.08
75372;HTU21D;63956;52.006;5.878;2023-02-01T08:13:08;8.36;64.01
75372;HTU21D;63956;52.006;5.878;2023-02-01T08:15:37;8.38;63.97
75372;HTU21D;63956;52.006;5.878;2023-02-01T08:18:06;8.39;63.99
75372;HTU21D;63956;52.006;5.878;2023-02-01T08:20:36;8.39;63.98
75372;HTU21D;63956;52.006;5.878;2023-02-01T08:23:10;8.38;64.01
75372;HTU21D;63956;52.006;5.878;2023-02-01T08:25:39;8.37;64.04
75372;HTU21D;63956;52.006;5.878;2023-02-01T08:28:09;8.41;63.98
75372;HTU21D;63956;52.006;5.878;2023-02-01T08:30:38;8.44;63.85
75372;HTU21D;63956;52.006;5.878;2023-02-01T08:33:08;8.50;63.82
75372;HTU21D;63956;52.006;5.878;2023-02-01T08:35:38;8.56;63.70
75372;HTU21D;63956;52.006;5.878;2023-02-01T08:38:10;8.67;63.43
75372;HTU21D;63956;52.006;5.878;2023-02-01T08:40:39;8.74;63.20
75372;HTU21D;63956;52.006;5.878;2023-02-01T08:43:09;8.85;62.95
75372;HTU21D;63956;52.006;5.878;2023-02-01T08:45:39;8.98;62.86
75372;HTU21D;63956;52.006;5.878;2023-02-01T08:48:08;9.07;62.45
75372;HTU21D;63956;52.006;5.878;2023-02-01T08:50:37;9.45;61.72
75372;HTU21D;63956;52.006;5.878;2023-02-01T08:53:06;9.96;60.74
75372;HTU21D;63956;52.006;5.878;2023-02-01T08:55:38;10.67;59.57
75372;HTU21D;63956;52.006;5.878;2023-02-01T08:58:07;11.45;57.59
75372;HTU21D;63956;52.006;5.878;2023-02-01T09:00:36;12.47;55.10
75372;HTU21D;63956;52.006;5.878;2023-02-01T09:03:05;13.14;53.11
75372;HTU21D;63956;52.006;5.878;2023-02-01T09:05:34;12.91;54.42
75372;HTU21D;63956;52.006;5.878;2023-02-01T09:08:04;12.31;54.66
75372;HTU21D;63956;52.006;5.878;2023-02-01T09:10:33;12.01;55.67
75372;HTU21D;63956;52.006;5.878;2023-02-01T09:13:05;12.27;55.51
75372;HTU21D;63956;52.006;5.878;2023-02-01T09:15:35;12.17;55.26
75372;HTU21D;63956;52.006;5.878;2023-02-01T09:18:04;11.79;56.13
75372;HTU21D;63956;52.006;5.878;2023-02-01T09:20:33;11.44;56.87
75372;HTU21D;63956;52.006;5.878;2023-02-01T09:23:02;11.25;57.33
75372;HTU21D;63956;52.006;5.878;2023-02-01T09:25:32;11.18;57.33
75372;HTU21D;63956;52.006;5.878;2023-02-01T09:28:01;11.08;57.84
75372;HTU21D;63956;52.006;5.878;2023-02-01T09:30:35;11.13;57.67
75372;HTU21D;63956;52.006;5.878;2023-02-01T09:33:04;11.30;57.07
75372;HTU21D;63956;52.006;5.878;2023-02-01T09:35:34;11.40;56.81
75372;HTU21D;63956;52.006;5.878;2023-02-01T09:38:04;11.26;56.89
75372;HTU21D;63956;52.006;5.878;2023-02-01T09:40:33;11.07;57.46
75372;HTU21D;63956;52.006;5.878;2023-02-01T09:43:12;10.93;58.01
75372;HTU21D;63956;52.006;5.878;2023-02-01T09:45:53;10.93;58.16
75372;HTU21D;63956;52.006;5.878;2023-02-01T09:48:29;10.90;58.08
75372;HTU21D;63956;52.006;5.878;2023-02-01T09:50:59;10.80;58.35
75372;HTU21D;63956;52.006;5.878;2023-02-01T09:53:34;10.63;58.67
75372;HTU21D;63956;52.006;5.878;2023-02-01T09:56:07;10.51;58.74
75372;HTU21D;63956;52.006;5.878;2023-02-01T09:58:42;10.42;58.83
75372;HTU21D;63956;52.006;5.878;2023-02-01T10:01:19;10.35;59.04
75372;HTU21D;63956;52.006;5.878;2023-02-01T10:03:49;10.22;59.26
75372;HTU21D;63956;52.006;5.878;2023-02-01T10:06:36;10.15;59.51
75372;HTU21D;63956;52.006;5.878;2023-02-01T10:09:18;10.09;59.58
75372;HTU21D;63956;52.006;5.878;2023-02-01T10:12:00;10.03;59.68
75372;HTU21D;63956;52.006;5.878;2023-02-01T10:14:57;9.94;59.68
75372;HTU21D;63956;52.006;5.878;2023-02-01T10:17:44;9.86;59.92
75372;HTU21D;63956;52.006;5.878;2023-02-01T10:20:20;9.84;60.08
75372;HTU21D;63956;52.006;5.878;2023-02-01T10:23:00;9.83;60.06
75372;HTU21D;63956;52.006;5.878;2023-02-01T10:25:36;9.78;60.20
75372;HTU21D;63956;52.006;5.878;2023-02-01T10:28:09;9.75;60.46
75372;HTU21D;63956;52.006;5.878;2023-02-01T10:30:44;9.66;61.43
75372;HTU21D;63956;52.006;5.878;2023-02-01T10:33:19;9.65;61.70
75372;HTU21D;63956;52.006;5.878;2023-02-01T10:35:54;9.51;62.38
75372;HTU21D;63956;52.006;5.878;2023-02-01T10:38:26;9.41;62.82
75372;HTU21D;63956;52.006;5.878;2023-02-01T10:41:00;9.34;63.24
75372;HTU21D;63956;52.006;5.878;2023-02-01T10:43:31;9.23;63.47
75372;HTU21D;63956;52.006;5.878;2023-02-01T10:46:00;9.16;64.21
75372;HTU21D;63956;52.006;5.878;2023-02-01T10:48:32;9.12;64.48
75372;HTU21D;63956;52.006;5.878;2023-02-01T10:51:06;9.09;64.80
75372;HTU21D;63956;52.006;5.878;2023-02-01T10:53:41;9.00;65.39
75372;HTU21D;63956;52.006;5.878;2023-02-01T10:56:14;8.91;65.85
75372;HTU21D;63956;52.006;5.878;2023-02-01T10:58:50;8.78;66.54
75372;HTU21D;63956;52.006;5.878;2023-02-01T11:01:22;8.72;67.00
75372;HTU21D;63956;52.006;5.878;2023-02-01T11:03:57;8.70;67.12
75372;HTU21D;63956;52.006;5.878;2023-02-01T11:06:29;8.64;67.43
75372;HTU21D;63956;52.006;5.878;2023-02-01T11:09:01;8.61;67.47
75372;HTU21D;63956;52.006;5.878;2023-02-01T11:11:54;8.60;67.21
75372;HTU21D;63956;52.006;5.878;2023-02-01T11:14:32;8.58;67.47
75372;HTU21D;63956;52.006;5.878;2023-02-01T11:17:16;8.53;67.21
75372;HTU21D;63956;52.006;5.878;2023-02-01T11:19:57;8.53;67.10
75372;HTU21D;63956;52.006;5.878;2023-02-01T11:22:27;8.55;67.29
75372;HTU21D;63956;52.006;5.878;2023-02-01T11:25:12;8.58;66.94
75372;HTU21D;63956;52.006;5.878;2023-02-01T11:27:46;8.59;67.09
75372;HTU21D;63956;52.006;5.878;2023-02-01T11:30:19;8.63;66.90
75372;HTU21D;63956;52.006;5.878;2023-02-01T11:32:51;8.65;66.85
75372;HTU21D;63956;52.006;5.878;2023-02-01T11:35:22;8.71;66.50
75372;HTU21D;63956;52.006;5.878;2023-02-01T11:37:55;8.71;66.35
75372;HTU21D;63956;52.006;5.878;2023-02-01T11:40:27;8.76;66.45
75372;HTU21D;63956;52.006;5.878;2023-02-01T11:42:58;8.80;66.46
75372;HTU21D;63956;52.006;5.878;2023-02-01T11:45:29;8.80;66.65
75372;HTU21D;63956;52.006;5.878;2023-02-01T11:48:00;8.78;66.69
75372;HTU21D;63956;52.006;5.878;2023-02-01T11:50:37;8.80;66.69
75372;HTU21D;63956;52.006;5.878;2023-02-01T11:53:23;8.81;66.68
75372;HTU21D;63956;52.006;5.878;2023-02-01T11:56:06;8.86;66.57
75372;HTU21D;63956;52.006;5.878;2023-02-01T11:59:08;8.91;66.33
75372;HTU21D;63956;52.006;5.878;2023-02-01T12:01:56;8.96;66.29
75372;HTU21D;63956;52.006;5.878;2023-02-01T12:10:57;9.22;65.82
75372;HTU21D;63956;52.006;5.878;2023-02-01T12:13:38;9.25;65.45
75372;HTU21D;63956;52.006;5.878;2023-02-01T12:16:19;9.30;65.33
75372;HTU21D;63956;52.006;5.878;2023-02-01T12:19:06;9.35;65.45
75372;HTU21D;63956;52.006;5.878;2023-02-01T12:21:53;9.40;65.24
75372;HTU21D;63956;52.006;5.878;2023-02-01T12:24:42;9.50;64.96
75372;HTU21D;63956;52.006;5.878;2023-02-01T12:27:30;9.56;64.85
75372;HTU21D;63956;52.006;5.878;2023-02-01T12:30:22;9.60;64.71
75372;HTU21D;63956;52.006;5.878;2023-02-01T12:33:05;9.64;64.49
75372;HTU21D;63956;52.006;5.878;2023-02-01T12:35:44;9.76;64.29
75372;HTU21D;63956;52.006;5.878;2023-02-01T12:38:37;9.84;64.03
75372;HTU21D;63956;52.006;5.878;2023-02-01T12:41:28;9.91;63.81
75372;HTU21D;63956;52.006;5.878;2023-02-01T12:44:03;9.90;63.42
75372;HTU21D;63956;52.006;5.878;2023-02-01T12:46:39;9.86;63.81
75372;HTU21D;63956;52.006;5.878;2023-02-01T12:49:14;9.88;63.79
75372;HTU21D;63956;52.006;5.878;2023-02-01T12:51:44;9.93;63.81
75372;HTU21D;63956;52.006;5.878;2023-02-01T12:54:20;9.95;63.53
75372;HTU21D;63956;52.006;5.878;2023-02-01T12:56:57;9.95;63.31
75372;HTU21D;63956;52.006;5.878;2023-02-01T12:59:39;9.94;63.63
75372;HTU21D;63956;52.006;5.878;2023-02-01T13:02:16;9.95;63.58
75372;HTU21D;63956;52.006;5.878;2023-02-01T13:04:56;9.96;63.14
75372;HTU21D;63956;52.006;5.878;2023-02-01T13:07:34;9.95;62.89
75372;HTU21D;63956;52.006;5.878;2023-02-01T13:10:13;9.94;63.00
75372;HTU21D;63956;52.006;5.878;2023-02-01T13:12:50;9.95;63.26
75372;HTU21D;63956;52.006;5.878;2023-02-01T13:15:27;9.95;63.13
75372;HTU21D;63956;52.006;5.878;2023-02-01T13:18:00;9.92;63.23
75372;HTU21D;63956;52.006;5.878;2023-02-01T13:20:31;9.90;62.90
75372;HTU21D;63956;52.006;5.878;2023-02-01T13:23:08;9.86;63.27
75372;HTU21D;63956;52.006;5.878;2023-02-01T13:25:45;9.88;63.22
75372;HTU21D;63956;52.006;5.878;2023-02-01T13:28:22;9.88;63.07
75372;HTU21D;63956;52.006;5.878;2023-02-01T13:31:24;9.89;63.20
75372;HTU21D;63956;52.006;5.878;2023-02-01T13:40:33;9.89;63.03
75372;HTU21D;63956;52.006;5.878;2023-02-01T13:43:07;9.89;62.94
75372;HTU21D;63956;52.006;5.878;2023-02-01T13:45:46;9.90;62.92
75372;HTU21D;63956;52.006;5.878;2023-02-01T13:48:23;9.89;62.83
75372;HTU21D;63956;52.006;5.878;2023-02-01T13:50:55;9.84;63.14
75372;HTU21D;63956;52.006;5.878;2023-02-01T13:53:28;9.78;63.48
75372;HTU21D;63956;52.006;5.878;2023-02-01T13:56:00;9.72;63.78
75372;HTU21D;63956;52.006;5.878;2023-02-01T13:58:34;9.71;63.87
75372;HTU21D;63956;52.006;5.878;2023-02-01T14:07:21;9.57;64.11
75372;HTU21D;63956;52.006;5.878;2023-02-01T14:09:50;9.56;64.25
75372;HTU21D;63956;52.006;5.878;2023-02-01T14:12:45;9.61;63.94
75372;HTU21D;63956;52.006;5.878;2023-02-01T14:15:23;9.65;63.72
75372;HTU21D;63956;52.006;5.878;2023-02-01T14:17:54;9.68;63.60
75372;HTU21D;63956;52.006;5.878;2023-02-01T14:20:45;9.75;63.53
75372;HTU21D;63956;52.006;5.878;2023-02-01T14:23:23;9.81;63.49
75372;HTU21D;63956;52.006;5.878;2023-02-01T14:26:12;9.89;63.17
75372;HTU21D;63956;52.006;5.878;2023-02-01T14:28:49;9.94;63.14
75372;HTU21D;63956;52.006;5.878;2023-02-01T14:31:52;10.00;62.95
75372;HTU21D;63956;52.006;5.878;2023-02-01T14:34:33;10.00;62.79
75372;HTU21D;63956;52.006;5.878;2023-02-01T14:37:11;9.98;62.69
75372;HTU21D;63956;52.006;5.878;2023-02-01T14:39:54;10.00;62.50
75372;HTU21D;63956;52.006;5.878;2023-02-01T14:42:26;10.00;62.73
75372;HTU21D;63956;52.006;5.878;2023-02-01T14:50:59;9.97;62.63
75372;HTU21D;63956;52.006;5.878;2023-02-01T14:53:33;10.00;62.46
75372;HTU21D;63956;52.006;5.878;2023-02-01T14:56:09;10.04;62.64
75372;HTU21D;63956;52.006;5.878;2023-02-01T14:58:44;10.05;62.47
75372;HTU21D;63956;52.006;5.878;2023-02-01T15:01:22;10.09;62.60
75372;HTU21D;63956;52.006;5.878;2023-02-01T15:03:56;10.12;62.34
75372;HTU21D;63956;52.006;5.878;2023-02-01T15:06:32;10.14;62.59
75372;HTU21D;63956;52.006;5.878;2023-02-01T15:09:04;10.14;62.35
75372;HTU21D;63956;52.006;5.878;2023-02-01T15:14:42;10.13;62.47
75372;HTU21D;63956;52.006;5.878;2023-02-01T15:17:20;10.11;62.77
75372;HTU21D;63956;52.006;5.878;2023-02-01T15:19:53;10.06;63.14
75372;HTU21D;63956;52.006;5.878;2023-02-01T15:22:22;9.99;63.82
75372;HTU21D;63956;52.006;5.878;2023-02-01T15:24:52;9.95;64.28
75372;HTU21D;63956;52.006;5.878;2023-02-01T15:27:22;9.92;64.67
75372;HTU21D;63956;52.006;5.878;2023-02-01T15:29:54;9.85;65.04
75372;HTU21D;63956;52.006;5.878;2023-02-01T15:32:30;9.82;65.07
75372;HTU21D;63956;52.006;5.878;2023-02-01T15:35:00;9.77;65.43
75372;HTU21D;63956;52.006;5.878;2023-02-01T15:37:30;9.77;65.62
75372;HTU21D;63956;52.006;5.878;2023-02-01T15:40:19;9.74;65.40
75372;HTU21D;63956;52.006;5.878;2023-02-01T15:42:55;9.65;65.56
75372;HTU21D;63956;52.006;5.878;2023-02-01T15:45:29;9.59;65.62
75372;HTU21D;63956;52.006;5.878;2023-02-01T15:47:59;9.49;65.67
75372;HTU21D;63956;52.006;5.878;2023-02-01T15:50:31;9.40;65.76
75372;HTU21D;63956;52.006;5.878;2023-02-01T15:53:00;9.32;65.90
75372;HTU21D;63956;52.006;5.878;2023-02-01T15:55:36;9.31;65.89
75372;HTU21D;63956;52.006;5.878;2023-02-01T15:58:06;9.24;66.07
75372;HTU21D;63956;52.006;5.878;2023-02-01T16:00:44;9.22;66.00
75372;HTU21D;63956;52.006;5.878;2023-02-01T16:03:32;9.20;66.08
75372;HTU21D;63956;52.006;5.878;2023-02-01T16:06:05;9.17;66.22
75372;HTU21D;63956;52.006;5.878;2023-02-01T16:08:35;9.12;66.30
75372;HTU21D;63956;52.006;5.878;2023-02-01T16:11:24;9.11;66.14
75372;HTU21D;63956;52.006;5.878;2023-02-01T16:13:54;9.11;66.48
75372;HTU21D;63956;52.006;5.878;2023-02-01T16:16:27;9.10;66.26
75372;HTU21D;63956;52.006;5.878;2023-02-01T16:18:56;9.08;66.46
75372;HTU21D;63956;52.006;5.878;2023-02-01T16:21:25;9.07;66.20
75372;HTU21D;63956;52.006;5.878;2023-02-01T16:23:54;9.05;66.47
75372;HTU21D;63956;52.006;5.878;2023-02-01T16:26:25;9.08;66.61
75372;HTU21D;63956;52.006;5.878;2023-02-01T16:28:54;9.12;66.62
75372;HTU21D;63956;52.006;5.878;2023-02-01T16:31:28;9.21;66.46
75372;HTU21D;63956;52.006;5.878;2023-02-01T16:33:57;9.26;66.49
75372;HTU21D;63956;52.006;5.878;2023-02-01T16:36:27;9.31;66.27
75372;HTU21D;63956;52.006;5.878;2023-02-01T16:38:57;9.38;66.35
75372;HTU21D;63956;52.006;5.878;2023-02-01T16:41:26;9.47;66.00